Tropical Cyclones
[Index]
Main Index Home Page Stock Weather Photos Extreme Storms Discussion Storm News and Storm Chasing Reports Tropical Cyclones / Hurricanes / Typhoons Weather Data and Links Wild Fires / Bushfires Weather Observation Techniques Weather Picture Catalogue Tornado Pictures and Reports Stock Video Footage and DVDs for sale
Season 2008-2009 Tropical Cyclone BILLY Track Map
Season 2008-2009 Summaries: [BoM-AU] [JTWC-AU] [JTWC-SIO] [JTWC-SPAC] [JTWC-SH]
<<- Previous TC | BoM 2008-2009 Season | Next TC ->>

click for intensity scale information  Lat/long Grid: Show Hide

 Date Labels: Show Hide

Bureau of Meteorology Tropical Cyclone Data

Name: BILLY
Number: 920 / 200809_03

15 Dec 2008 00:00 UTC to 03 Jan 2009 18:00 UTC

    date/time    lat    long    hPa   cat  kts
2008-12-15 00   10.2   128.7   1002         10          
2008-12-15 06   10.3   128.6   1002         10          
2008-12-15 12   10.3   128.4   1002         15          
2008-12-15 18   10.4   128.1   1002         15          
2008-12-16 00   10.6   127.7   1002         15          
2008-12-16 06   11.0   127.5   1000         20          
2008-12-16 12   11.3   127.3   1000         20          
2008-12-16 18   11.8   127.3   1000         20          
2008-12-17 00   12.3   127.2   1000         20          
2008-12-17 06   12.7   127.5    998         20          
2008-12-17 12   12.8   127.5    998         20          
2008-12-17 18   13.2   127.8    998         25          
2008-12-18 00   13.8   128.3    996         25          
2008-12-18 03   14.0   128.5    996         25          
2008-12-18 06   14.1   128.6    994    1    35          
2008-12-18 12   14.5   128.8    993    1    40          
2008-12-18 15   14.6   128.8    993    1    40          
2008-12-18 18   14.6   128.8    991    1    40          
2008-12-18 21   14.5   128.8    988    1    45          
2008-12-19 00   14.4   128.8    988    1    45          
2008-12-19 03   14.5   128.6    988    1    45          
2008-12-19 06   14.5   128.7    983    2    50          
2008-12-19 09   14.5   128.7    982    2    50          
2008-12-19 12   14.6   128.6    983    2    50          
2008-12-19 15   14.8   128.4    986    1    50          
2008-12-19 18   14.9   128.1    989    1    45          
2008-12-19 21   14.9   128.0    993    1    40          
2008-12-20 00   14.9   127.9    995    1    35          
2008-12-20 06   15.1   127.4    996         30          
2008-12-20 12   15.2   126.9    996         30          
2008-12-20 18   15.1   126.3    996         30          
2008-12-21 00   15.1   126.0    998         30          
2008-12-21 06   15.1   125.8    996         30          
2008-12-21 12   15.3   125.5    996         30          
2008-12-21 18   15.4   125.2    996         30          
2008-12-22 00   15.6   124.7    995    1    35          
2008-12-22 06   15.9   124.0    995    1    35          
2008-12-22 12   16.3   123.4    994    1    35          
2008-12-22 18   16.6   122.8    992    1    35          
2008-12-23 00   17.2   122.2    989    1    45          
2008-12-23 06   17.6   121.2    986    1    50          
2008-12-23 12   17.8   120.8    985    2    50          
2008-12-23 18   17.9   120.3    978    2    60          
2008-12-24 00   17.8   119.9    976    2    65          
2008-12-24 06   17.8   119.2    964    3    80          
2008-12-24 12   17.8   118.6    955    4    90          
2008-12-24 18   17.6   117.9    950    4    95          
2008-12-25 00   17.5   117.3    955    4    90          
2008-12-25 06   17.3   116.6    955    4    90          
2008-12-25 12   16.9   116.0    955    4    90          
2008-12-25 18   16.3   115.3    960    3    85          
2008-12-26 00   16.1   114.8    964    3    80          
2008-12-26 06   15.8   114.3    964    3    80          
2008-12-26 12   15.7   113.9    970    3    70          
2008-12-26 18   15.4   113.6    978    2    60          
2008-12-27 00   15.3   113.4    981    2    55          
2008-12-27 06   15.2   112.9    985    2    50          
2008-12-27 12   15.1   112.8    985    2    50          
2008-12-27 18   15.0   112.9    992    1    40          
2008-12-28 00   14.9   113.0    995    1    30          
2008-12-28 06   15.5   112.7    996         30          
2008-12-28 12   16.1   112.6    998         25          
2008-12-28 18   16.4   112.0    998         25          
2008-12-29 00   16.6   111.4    998         25          
2008-12-29 06   16.7   110.6    998         25          
2008-12-29 12   16.9   109.8    998         25          
2008-12-29 18   16.9   108.7    998         25          
2008-12-30 00   16.9   108.2    998         25          
2008-12-30 06   16.8   107.7    998         25          
2008-12-30 12   16.6   107.4   1000         25          
2008-12-30 18   16.5   106.7   1000         20          
2008-12-31 00   16.5   106.0   1002         20          
2008-12-31 06   15.9   105.2   1002         20          
2008-12-31 12   15.9   104.1   1002         20          
2008-12-31 18   15.4   103.2   1002         15          
2009-01-01 00   15.0   102.3   1002         15          
2009-01-01 06   15.0   101.5   1002         15          
2009-01-01 12   14.9   100.6   1002         15          
2009-01-01 18   14.6    99.3   1002         15          
2009-01-02 00   14.3    98.3   1004         15          
2009-01-02 06   13.9    97.1   1004         15          
2009-01-02 12   13.7    96.0   1004         15          
2009-01-02 18   13.5    94.6   1004         15          
2009-01-03 00   13.2    93.3   1004         15          
2009-01-03 06   13.0    92.0   1004         15          
2009-01-03 12   12.7    91.3   1004         15          
2009-01-03 18   12.6    90.2   1004         15          
Winds are 10-min average.

Tropical cyclone tracks developed by Michael Bath using data from the Bureau of Meteorology and Google Maps.


[Australian Severe Weather index] [Copyright Notice] [Email Contacts] [Search This Site] [Privacy Policy]
Document: tropical_cyclone_billy.htm Updated: 29 June 2017